Stad Amsterdam — PECA — position and weather

sailwx.info

Track history (hours):
 
Tides and Currents Weather Stations Pressure Air Temp Water Temp Dewpoint Dewpoint Depression Visibility Wind Speed Wind Dir Waves Ship Positions

Stad Amsterdam (Netherlands)

Ship's website: http://www.stadamsterdam.com/content/home/index.xml

Last reported at 2017-Jan-19 18:19 UTC. Time now 2017-Jan-21 04:25 UTC.
Position N 18°29' W 064°26'.

Length 76 m; beam 10 m.

Type: Sailing vessel. MMSI: 246494000.

Date/timePositionNaut miles runAvg speedWind from/ knotsBaromVisibWave heightAir tempDewpointWater temp
2017-Jan-19 18:19N 18°29' W 064°26'6 7.4
2017-Jan-19 17:33N 18°25' W 064°30'2 1.5
2017-Jan-19 16:28N 18°23' W 064°31'0 0.0
2017-Jan-19 10:04N 18°23' W 064°31'0 0.1
2017-Jan-19 09:10N 18°23' W 064°31'0 0.0
2017-Jan-19 08:10N 18°23' W 064°31'0 0.0
2017-Jan-19 07:28N 18°23' W 064°31'0 0.0
2017-Jan-19 06:28N 18°23' W 064°31'0 0.0
2017-Jan-19 05:28N 18°23' W 064°31'0 0.0
2017-Jan-19 04:28N 18°23' W 064°31'0 0.0
2017-Jan-19 03:31N 18°23' W 064°31'0 0.0
2017-Jan-19 02:31N 18°23' W 064°31'0 0.0
2017-Jan-19 00:31N 18°23' W 064°31'0 0.0
2017-Jan-18 23:31N 18°23' W 064°31'0 0.0
2017-Jan-18 22:31N 18°23' W 064°31'0 0.0
2017-Jan-18 21:31N 18°23' W 064°31'0 0.0
2017-Jan-18 20:31N 18°23' W 064°31'8 0.3
2017-Jan-17 16:29N 18°21' W 064°40'3 3.2
2017-Jan-17 15:32N 18°23' W 064°42'4 4.1
2017-Jan-17 14:33N 18°25' W 064°45'1 0.9
2017-Jan-17 13:32N 18°26' W 064°46'0 0.0
2017-Jan-17 12:32N 18°26' W 064°46'0 0.0
2017-Jan-17 11:32N 18°26' W 064°46'0 0.0
2017-Jan-17 10:32N 18°26' W 064°46'0 0.0
2017-Jan-17 09:26N 18°26' W 064°46'0 0.0
2017-Jan-17 08:32N 18°26' W 064°46'0 0.0
2017-Jan-17 07:32N 18°26' W 064°46'0 0.0
2017-Jan-17 06:32N 18°26' W 064°46'0 0.0
2017-Jan-17 05:32N 18°26' W 064°46'0 0.0
2017-Jan-17 04:32N 18°26' W 064°46'0 0.0
2017-Jan-17 03:32N 18°26' W 064°46'0 0.0
2017-Jan-17 02:26N 18°26' W 064°46'0 0.0
2017-Jan-17 01:32N 18°26' W 064°46'0 0.0
2017-Jan-17 00:32N 18°26' W 064°46'0 0.0
2017-Jan-16 23:20N 18°26' W 064°46'0 0.0
2017-Jan-16 22:32N 18°26' W 064°46'0 0.0
2017-Jan-16 21:32N 18°26' W 064°46'0 0.0
2017-Jan-16 20:32N 18°26' W 064°46'0 0.0
2017-Jan-16 19:33N 18°26' W 064°46'5 4.5
2017-Jan-16 18:33N 18°30' W 064°49'5 4.6
2017-Jan-16 17:26N 18°35' W 064°51'4 4.3
2017-Jan-16 16:33N 18°31' W 064°50'3 3.2
2017-Jan-16 15:33N 18°28' W 064°48'4 3.5
2017-Jan-16 14:32N 18°26' W 064°45'0 0.2
2017-Jan-16 13:06N 18°26' W 064°45'0 0.0
2017-Jan-16 12:30N 18°26' W 064°45'0 0.0
2017-Jan-16 11:30N 18°26' W 064°45'0 0.0
2017-Jan-16 10:30N 18°26' W 064°45'0 0.0
2017-Jan-16 09:24N 18°26' W 064°45'0 0.0
2017-Jan-16 08:30N 18°26' W 064°45'0 0.0
2017-Jan-16 07:24N 18°26' W 064°45'0 0.0
2017-Jan-16 06:30N 18°26' W 064°45'0 0.0
2017-Jan-16 05:24N 18°26' W 064°45'0 0.0
2017-Jan-16 04:30N 18°26' W 064°45'0 0.0
2017-Jan-16 03:24N 18°26' W 064°45'0 0.0
2017-Jan-16 02:30N 18°26' W 064°45'0 0.1
2017-Jan-16 01:30N 18°26' W 064°45'0 0.0
2017-Jan-16 00:30N 18°26' W 064°45'0 0.0
2017-Jan-15 23:30N 18°26' W 064°45'0 0.0
2017-Jan-15 22:24N 18°26' W 064°45'0 0.0
2017-Jan-15 21:24N 18°26' W 064°45'0 0.0
2017-Jan-15 20:24N 18°26' W 064°45'0 0.0
2017-Jan-15 19:30N 18°26' W 064°45'0 0.0
2017-Jan-15 18:30N 18°26' W 064°45'0 0.0
2017-Jan-15 17:30N 18°26' W 064°45'0 0.0
2017-Jan-15 16:30N 18°26' W 064°45'1 0.8
2017-Jan-15 15:33N 18°26' W 064°45'74 7.8
2017-Jan-15 06:04N 18°11' W 063°28'4 7.6
2017-Jan-15 05:32N 18°10' W 063°24'10 9.2
2017-Jan-15 04:28N 18°05' W 063°15'7 7.7
2017-Jan-15 03:33N 18°02' W 063°08'  
2017-Jan-12 13:16N 18°01' W 063°03'3 4.0
2017-Jan-12 12:29N 18°02' W 063°06'0 0.0
2017-Jan-12 11:24N 18°02' W 063°06'0 0.0
2017-Jan-12 10:29N 18°02' W 063°06'0 0.0
2017-Jan-12 09:32N 18°02' W 063°06'0 0.0
2017-Jan-12 08:32N 18°02' W 063°06'0 0.0
2017-Jan-12 07:32N 18°02' W 063°06'0 0.0
2017-Jan-12 06:32N 18°02' W 063°06'0 0.0
2017-Jan-12 05:23N 18°02' W 063°06'0 0.0
2017-Jan-12 04:32N 18°02' W 063°06'0 0.0
2017-Jan-12 03:20N 18°02' W 063°06'0 0.0
2017-Jan-12 02:26N 18°02' W 063°06'0 0.0
2017-Jan-12 01:26N 18°02' W 063°06'0 0.0
2017-Jan-12 00:26N 18°02' W 063°06'0 0.0
2017-Jan-11 23:26N 18°02' W 063°06'0 0.0
2017-Jan-11 22:29N 18°02' W 063°06'0 0.0
2017-Jan-11 21:29N 18°02' W 063°06'0 0.0
2017-Jan-11 20:32N 18°02' W 063°06'0 0.0
2017-Jan-11 19:32N 18°02' W 063°06'0 0.0
2017-Jan-11 18:32N 18°02' W 063°06'0 0.0
2017-Jan-11 17:32N 18°02' W 063°06'0 0.0
2017-Jan-11 16:31N 18°02' W 063°06'0 0.0
2017-Jan-11 15:32N 18°02' W 063°06'0 0.0
2017-Jan-11 14:32N 18°02' W 063°06'0 0.0
2017-Jan-11 13:22N 18°02' W 063°06'0 0.0
2017-Jan-11 12:23N 18°02' W 063°06'0 0.0
2017-Jan-11 11:26N 18°02' W 063°06'0 0.0
2017-Jan-11 10:26N 18°02' W 063°06'0 0.0
2017-Jan-11 09:22N 18°02' W 063°06'0 0.0
2017-Jan-11 08:29N 18°02' W 063°06'0 0.0
2017-Jan-11 07:29N 18°02' W 063°06'0 0.0
2017-Jan-11 06:29N 18°02' W 063°06'0 0.0
2017-Jan-11 05:31N 18°02' W 063°06'0 0.0
2017-Jan-11 04:29N 18°02' W 063°06'0 0.0
2017-Jan-11 03:32N 18°02' W 063°06'0 0.0
2017-Jan-11 02:31N 18°02' W 063°06'0 0.0
2017-Jan-11 01:31N 18°02' W 063°06'0 0.0
2017-Jan-11 00:31N 18°02' W 063°06'0 0.0
2017-Jan-10 23:32N 18°02' W 063°06'0 0.0
2017-Jan-10 22:23N 18°02' W 063°06'0 0.0
2017-Jan-10 21:26N 18°02' W 063°06'0 0.0
2017-Jan-10 20:25N 18°02' W 063°06'0 0.0
2017-Jan-10 19:23N 18°02' W 063°06'0 0.0
2017-Jan-10 18:25N 18°02' W 063°06'0 0.0
2017-Jan-10 17:13N 18°02' W 063°06'0 0.0
2017-Jan-10 16:28N 18°02' W 063°06'0 0.0
2017-Jan-10 15:31N 18°02' W 063°06'0 0.0
2017-Jan-10 14:28N 18°02' W 063°06'0 0.0
2017-Jan-10 13:31N 18°02' W 063°06'0 0.0
2017-Jan-10 12:28N 18°02' W 063°06'0 0.0
2017-Jan-10 11:32N 18°02' W 063°06'0 0.0
2017-Jan-10 10:31N 18°02' W 063°06'0 0.0
2017-Jan-10 09:31N 18°02' W 063°06'0 0.0
2017-Jan-10 08:31N 18°02' W 063°06'0 0.0
2017-Jan-10 07:23N 18°02' W 063°06'0 0.0
2017-Jan-10 06:22N 18°02' W 063°06'0 0.0
2017-Jan-10 05:25N 18°02' W 063°06'0 0.0
2017-Jan-10 04:22N 18°02' W 063°06'0 0.0
2017-Jan-10 03:28N 18°02' W 063°06'0 0.0
2017-Jan-10 02:28N 18°02' W 063°06'0 0.0
2017-Jan-10 01:28N 18°02' W 063°06'0 0.0
2017-Jan-10 00:28N 18°02' W 063°06'0 0.0
2017-Jan-09 23:31N 18°02' W 063°06'0 0.0
2017-Jan-09 22:31N 18°02' W 063°06'0 0.0
2017-Jan-09 21:19N 18°02' W 063°06'0 0.0
2017-Jan-09 20:31N 18°02' W 063°06'0 0.0
2017-Jan-09 19:32N 18°02' W 063°06'0 0.0
2017-Jan-09 18:31N 18°02' W 063°06'  
Track history (hours):
 
Tides and Currents Weather Stations Pressure Air Temp Water Temp Dewpoint Dewpoint Depression Visibility Wind Speed Wind Dir Waves Ship Positions

Stad Amsterdam (Netherlands)

Ship's website: http://www.stadamsterdam.com/content/home/index.xml

Last reported at 2017-Jan-19 18:19 UTC. Time now 2017-Jan-21 04:25 UTC.
Position N 18°29' W 064°26'.

Length 76 m; beam 10 m.

Type: Sailing vessel. MMSI: 246494000.

Date/timePositionNaut miles runAvg speedWind from/ knotsBaromVisibWave heightAir tempDewpointWater temp
2017-Jan-19 18:19N 18°29' W 064°26'6 7.4
2017-Jan-19 17:33N 18°25' W 064°30'2 1.5
2017-Jan-19 16:28N 18°23' W 064°31'0 0.0
2017-Jan-19 10:04N 18°23' W 064°31'0 0.1
2017-Jan-19 09:10N 18°23' W 064°31'0 0.0
2017-Jan-19 08:10N 18°23' W 064°31'0 0.0
2017-Jan-19 07:28N 18°23' W 064°31'0 0.0
2017-Jan-19 06:28N 18°23' W 064°31'0 0.0
2017-Jan-19 05:28N 18°23' W 064°31'0 0.0
2017-Jan-19 04:28N 18°23' W 064°31'0 0.0
2017-Jan-19 03:31N 18°23' W 064°31'0 0.0
2017-Jan-19 02:31N 18°23' W 064°31'0 0.0
2017-Jan-19 00:31N 18°23' W 064°31'0 0.0
2017-Jan-18 23:31N 18°23' W 064°31'0 0.0
2017-Jan-18 22:31N 18°23' W 064°31'0 0.0
2017-Jan-18 21:31N 18°23' W 064°31'0 0.0
2017-Jan-18 20:31N 18°23' W 064°31'8 0.3
2017-Jan-17 16:29N 18°21' W 064°40'3 3.2
2017-Jan-17 15:32N 18°23' W 064°42'4 4.1
2017-Jan-17 14:33N 18°25' W 064°45'1 0.9
2017-Jan-17 13:32N 18°26' W 064°46'0 0.0
2017-Jan-17 12:32N 18°26' W 064°46'0 0.0
2017-Jan-17 11:32N 18°26' W 064°46'0 0.0
2017-Jan-17 10:32N 18°26' W 064°46'0 0.0
2017-Jan-17 09:26N 18°26' W 064°46'0 0.0
2017-Jan-17 08:32N 18°26' W 064°46'0 0.0
2017-Jan-17 07:32N 18°26' W 064°46'0 0.0
2017-Jan-17 06:32N 18°26' W 064°46'0 0.0
2017-Jan-17 05:32N 18°26' W 064°46'0 0.0
2017-Jan-17 04:32N 18°26' W 064°46'0 0.0
2017-Jan-17 03:32N 18°26' W 064°46'0 0.0
2017-Jan-17 02:26N 18°26' W 064°46'0 0.0
2017-Jan-17 01:32N 18°26' W 064°46'0 0.0
2017-Jan-17 00:32N 18°26' W 064°46'0 0.0
2017-Jan-16 23:20N 18°26' W 064°46'0 0.0
2017-Jan-16 22:32N 18°26' W 064°46'0 0.0
2017-Jan-16 21:32N 18°26' W 064°46'0 0.0
2017-Jan-16 20:32N 18°26' W 064°46'0 0.0
2017-Jan-16 19:33N 18°26' W 064°46'5 4.5
2017-Jan-16 18:33N 18°30' W 064°49'5 4.6
2017-Jan-16 17:26N 18°35' W 064°51'4 4.3
2017-Jan-16 16:33N 18°31' W 064°50'3 3.2
2017-Jan-16 15:33N 18°28' W 064°48'4 3.5
2017-Jan-16 14:32N 18°26' W 064°45'0 0.2
2017-Jan-16 13:06N 18°26' W 064°45'0 0.0
2017-Jan-16 12:30N 18°26' W 064°45'0 0.0
2017-Jan-16 11:30N 18°26' W 064°45'0 0.0
2017-Jan-16 10:30N 18°26' W 064°45'0 0.0
2017-Jan-16 09:24N 18°26' W 064°45'0 0.0
2017-Jan-16 08:30N 18°26' W 064°45'0 0.0
2017-Jan-16 07:24N 18°26' W 064°45'0 0.0
2017-Jan-16 06:30N 18°26' W 064°45'0 0.0
2017-Jan-16 05:24N 18°26' W 064°45'0 0.0
2017-Jan-16 04:30N 18°26' W 064°45'0 0.0
2017-Jan-16 03:24N 18°26' W 064°45'0 0.0
2017-Jan-16 02:30N 18°26' W 064°45'0 0.1
2017-Jan-16 01:30N 18°26' W 064°45'0 0.0
2017-Jan-16 00:30N 18°26' W 064°45'0 0.0
2017-Jan-15 23:30N 18°26' W 064°45'0 0.0
2017-Jan-15 22:24N 18°26' W 064°45'0 0.0
2017-Jan-15 21:24N 18°26' W 064°45'0 0.0
2017-Jan-15 20:24N 18°26' W 064°45'0 0.0
2017-Jan-15 19:30N 18°26' W 064°45'0 0.0
2017-Jan-15 18:30N 18°26' W 064°45'0 0.0
2017-Jan-15 17:30N 18°26' W 064°45'0 0.0
2017-Jan-15 16:30N 18°26' W 064°45'1 0.8
2017-Jan-15 15:33N 18°26' W 064°45'74 7.8
2017-Jan-15 06:04N 18°11' W 063°28'4 7.6
2017-Jan-15 05:32N 18°10' W 063°24'10 9.2
2017-Jan-15 04:28N 18°05' W 063°15'7 7.7
2017-Jan-15 03:33N 18°02' W 063°08'  
2017-Jan-12 13:16N 18°01' W 063°03'3 4.0
2017-Jan-12 12:29N 18°02' W 063°06'0 0.0
2017-Jan-12 11:24N 18°02' W 063°06'0 0.0
2017-Jan-12 10:29N 18°02' W 063°06'0 0.0
2017-Jan-12 09:32N 18°02' W 063°06'0 0.0
2017-Jan-12 08:32N 18°02' W 063°06'0 0.0
2017-Jan-12 07:32N 18°02' W 063°06'0 0.0
2017-Jan-12 06:32N 18°02' W 063°06'0 0.0
2017-Jan-12 05:23N 18°02' W 063°06'0 0.0
2017-Jan-12 04:32N 18°02' W 063°06'0 0.0
2017-Jan-12 03:20N 18°02' W 063°06'0 0.0
2017-Jan-12 02:26N 18°02' W 063°06'0 0.0
2017-Jan-12 01:26N 18°02' W 063°06'0 0.0
2017-Jan-12 00:26N 18°02' W 063°06'0 0.0
2017-Jan-11 23:26N 18°02' W 063°06'0 0.0
2017-Jan-11 22:29N 18°02' W 063°06'0 0.0
2017-Jan-11 21:29N 18°02' W 063°06'0 0.0
2017-Jan-11 20:32N 18°02' W 063°06'0 0.0
2017-Jan-11 19:32N 18°02' W 063°06'0 0.0
2017-Jan-11 18:32N 18°02' W 063°06'0 0.0
2017-Jan-11 17:32N 18°02' W 063°06'0 0.0
2017-Jan-11 16:31N 18°02' W 063°06'0 0.0
2017-Jan-11 15:32N 18°02' W 063°06'0 0.0
2017-Jan-11 14:32N 18°02' W 063°06'0 0.0
2017-Jan-11 13:22N 18°02' W 063°06'0 0.0
2017-Jan-11 12:23N 18°02' W 063°06'0 0.0
2017-Jan-11 11:26N 18°02' W 063°06'0 0.0
2017-Jan-11 10:26N 18°02' W 063°06'0 0.0
2017-Jan-11 09:22N 18°02' W 063°06'0 0.0
2017-Jan-11 08:29N 18°02' W 063°06'0 0.0
2017-Jan-11 07:29N 18°02' W 063°06'0 0.0
2017-Jan-11 06:29N 18°02' W 063°06'0 0.0
2017-Jan-11 05:31N 18°02' W 063°06'0 0.0
2017-Jan-11 04:29N 18°02' W 063°06'0 0.0
2017-Jan-11 03:32N 18°02' W 063°06'0 0.0
2017-Jan-11 02:31N 18°02' W 063°06'0 0.0
2017-Jan-11 01:31N 18°02' W 063°06'0 0.0
2017-Jan-11 00:31N 18°02' W 063°06'0 0.0
2017-Jan-10 23:32N 18°02' W 063°06'0 0.0
2017-Jan-10 22:23N 18°02' W 063°06'0 0.0
2017-Jan-10 21:26N 18°02' W 063°06'0 0.0
2017-Jan-10 20:25N 18°02' W 063°06'0 0.0
2017-Jan-10 19:23N 18°02' W 063°06'0 0.0
2017-Jan-10 18:25N 18°02' W 063°06'0 0.0
2017-Jan-10 17:13N 18°02' W 063°06'0 0.0
2017-Jan-10 16:28N 18°02' W 063°06'0 0.0
2017-Jan-10 15:31N 18°02' W 063°06'0 0.0
2017-Jan-10 14:28N 18°02' W 063°06'0 0.0
2017-Jan-10 13:31N 18°02' W 063°06'0 0.0
2017-Jan-10 12:28N 18°02' W 063°06'0 0.0
2017-Jan-10 11:32N 18°02' W 063°06'0 0.0
2017-Jan-10 10:31N 18°02' W 063°06'0 0.0
2017-Jan-10 09:31N 18°02' W 063°06'0 0.0
2017-Jan-10 08:31N 18°02' W 063°06'0 0.0
2017-Jan-10 07:23N 18°02' W 063°06'0 0.0
2017-Jan-10 06:22N 18°02' W 063°06'0 0.0
2017-Jan-10 05:25N 18°02' W 063°06'0 0.0
2017-Jan-10 04:22N 18°02' W 063°06'0 0.0
2017-Jan-10 03:28N 18°02' W 063°06'0 0.0
2017-Jan-10 02:28N 18°02' W 063°06'0 0.0
2017-Jan-10 01:28N 18°02' W 063°06'0 0.0
2017-Jan-10 00:28N 18°02' W 063°06'0 0.0
2017-Jan-09 23:31N 18°02' W 063°06'0 0.0
2017-Jan-09 22:31N 18°02' W 063°06'0 0.0
2017-Jan-09 21:19N 18°02' W 063°06'0 0.0
2017-Jan-09 20:31N 18°02' W 063°06'0 0.0
2017-Jan-09 19:32N 18°02' W 063°06'0 0.0
2017-Jan-09 18:31N 18°02' W 063°06'  

Dump ship's entire track history